Time,TemperatureF,DewpointF,PressureIn,WindDirection,WindDirectionDegrees,WindSpeedMPH,WindSpeedGustMPH,Humidity,HourlyPrecipIn,Conditions,Clouds,dailyrainin,SoftwareType,DateUTC
2013-10-21 00:03:00,32.1,31.1,27.65,WNW,289,1.0,3.0,96,0.00,,---,0.01,VWS V14.01,2013-10-21 05:03:00,
2013-10-21 00:08:00,32.1,31.1,27.65,WNW,282,0.0,0.0,96,0.00,,---,0.00,VWS V14.01,2013-10-21 05:08:00,
2013-10-21 00:13:00,32.1,31.1,27.65,WNW,285,2.0,4.0,96,0.00,,---,0.00,VWS V14.01,2013-10-21 05:13:00,
2013-10-21 00:18:00,32.1,31.1,27.65,WNW,284,2.0,3.0,96,0.00,,---,0.00,VWS V14.01,2013-10-21 05:18:00,
2013-10-21 00:24:00,32.1,31.1,27.65,WNW,283,1.0,2.0,96,0.00,,---,0.00,VWS V14.01,2013-10-21 05:24:00,
2013-10-21 00:29:00,32.1,31.1,27.65,WNW,288,2.0,2.0,96,0.00,,---,0.00,VWS V14.01,2013-10-21 05:29:00,
2013-10-21 00:34:00,32.1,31.1,27.65,West,276,3.0,4.0,96,0.00,,---,0.00,VWS V14.01,2013-10-21 05:34:00,
2013-10-21 00:39:00,32.1,31.1,27.65,WNW,285,2.0,4.0,96,0.00,,---,0.00,VWS V14.01,2013-10-21 05:39:00,
2013-10-21 00:44:00,32.1,31.1,27.65,WNW,286,1.0,3.0,96,0.00,,---,0.00,VWS V14.01,2013-10-21 05:44:00,
2013-10-21 00:50:00,32.2,31.2,27.64,WNW,293,0.0,3.0,96,0.00,,---,0.00,VWS V14.01,2013-10-21 05:50:00,
2013-10-21 00:55:00,32.2,31.2,27.64,West,275,0.0,3.0,96,0.00,,---,0.00,VWS V14.01,2013-10-21 05:55:00,
2013-10-21 01:00:00,32.2,31.2,27.64,West,280,2.0,4.0,96,0.00,,---,0.00,VWS V14.01,2013-10-21 06:00:00,
2013-10-21 01:05:00,32.2,31.2,27.64,WNW,299,2.0,3.0,96,0.00,,---,0.00,VWS V14.01,2013-10-21 06:05:00,
2013-10-21 01:10:00,32.1,31.1,27.64,NW,306,10.0,14.0,96,0.00,,---,0.00,VWS V14.01,2013-10-21 06:10:00,
2013-10-21 01:16:00,31.7,30.7,27.64,West,271,4.0,13.0,96,0.00,,---,0.00,VWS V14.01,2013-10-21 06:16:00,
2013-10-21 01:21:00,31.5,30.5,27.65,WNW,288,5.0,8.0,96,0.00,,---,0.00,VWS V14.01,2013-10-21 06:21:00,
2013-10-21 01:26:00,31.2,30.2,27.65,North,349,3.0,7.0,96,0.00,,---,0.00,VWS V14.01,2013-10-21 06:26:00,
2013-10-21 01:31:00,30.9,29.9,27.65,NNW,333,3.0,6.0,96,0.00,,---,0.00,VWS V14.01,2013-10-21 06:31:00,
2013-10-21 01:36:00,30.7,29.7,27.65,WNW,297,3.0,3.0,96,0.00,,---,0.00,VWS V14.01,2013-10-21 06:36:00,
2013-10-21 01:42:00,30.7,29.7,27.65,West,274,6.0,7.0,96,0.01,,---,0.01,VWS V14.01,2013-10-21 06:42:00,
2013-10-21 01:47:00,30.7,29.7,27.65,WNW,289,3.0,9.0,96,0.01,,---,0.01,VWS V14.01,2013-10-21 06:47:00,
2013-10-21 01:52:00,30.7,29.7,27.65,WNW,293,4.0,6.0,96,0.01,,---,0.01,VWS V14.01,2013-10-21 06:52:00,
2013-10-21 01:57:00,30.8,29.8,27.65,NW,324,8.0,8.0,96,0.01,,---,0.01,VWS V14.01,2013-10-21 06:57:00,
2013-10-21 02:02:00,30.7,29.7,27.66,WNW,294,4.0,15.0,96,0.01,,---,0.01,VWS V14.01,2013-10-21 07:02:00,
2013-10-21 02:08:00,30.7,29.7,27.66,NW,311,8.0,8.0,96,0.01,,---,0.01,VWS V14.01,2013-10-21 07:08:00,
2013-10-21 02:13:00,30.6,29.6,27.66,West,281,5.0,9.0,96,0.01,,---,0.01,VWS V14.01,2013-10-21 07:13:00,
2013-10-21 02:18:00,30.7,29.7,27.66,West,261,3.0,3.0,96,0.01,,---,0.01,VWS V14.01,2013-10-21 07:18:00,
2013-10-21 02:23:00,30.5,29.5,27.66,WNW,292,2.0,4.0,96,0.01,,---,0.01,VWS V14.01,2013-10-21 07:23:00,
2013-10-21 02:28:00,30.4,29.4,27.66,WNW,289,2.0,3.0,96,0.01,,---,0.01,VWS V14.01,2013-10-21 07:28:00,
2013-10-21 02:34:00,30.2,29.2,27.66,WNW,288,2.0,6.0,96,0.01,,---,0.01,VWS V14.01,2013-10-21 07:34:00,
2013-10-21 02:39:00,29.9,28.9,27.66,WNW,288,1.0,3.0,96,0.01,,---,0.01,VWS V14.01,2013-10-21 07:39:00,
2013-10-21 02:44:00,29.9,28.9,27.66,WNW,288,3.0,10.0,96,0.00,,---,0.01,VWS V14.01,2013-10-21 07:44:00,
2013-10-21 02:49:00,29.8,28.8,27.66,West,281,3.0,8.0,96,0.00,,---,0.01,VWS V14.01,2013-10-21 07:49:00,
2013-10-21 02:55:00,29.8,28.8,27.66,West,275,3.0,8.0,96,0.00,,---,0.01,VWS V14.01,2013-10-21 07:55:00,
2013-10-21 03:00:00,29.7,28.7,27.66,WNW,294,3.0,3.0,96,0.00,,---,0.01,VWS V14.01,2013-10-21 08:00:00,
2013-10-21 03:05:00,29.7,28.7,27.66,WNW,288,4.0,4.0,96,0.00,,---,0.01,VWS V14.01,2013-10-21 08:05:00,
2013-10-21 03:10:00,29.6,28.6,27.66,WNW,287,0.0,0.0,96,0.00,,---,0.01,VWS V14.01,2013-10-21 08:10:00,
2013-10-21 03:15:00,29.6,28.4,27.66,WNW,283,8.0,8.0,95,0.00,,---,0.01,VWS V14.01,2013-10-21 08:15:00,
2013-10-21 03:21:00,29.5,28.2,27.66,WNW,286,8.0,10.0,95,0.00,,---,0.01,VWS V14.01,2013-10-21 08:21:00,
2013-10-21 03:26:00,29.4,28.1,27.66,WNW,302,2.0,7.0,95,0.00,,---,0.01,VWS V14.01,2013-10-21 08:26:00,
2013-10-21 03:31:00,29.3,28.0,27.66,WNW,293,1.0,4.0,95,0.00,,---,0.01,VWS V14.01,2013-10-21 08:31:00,
2013-10-21 03:36:00,29.2,28.0,27.66,West,268,3.0,5.0,95,0.00,,---,0.01,VWS V14.01,2013-10-21 08:36:00,
2013-10-21 03:41:00,29.1,27.9,27.66,WNW,302,3.0,11.0,95,0.00,,---,0.01,VWS V14.01,2013-10-21 08:41:00,
2013-10-21 03:46:00,29.1,27.9,27.66,WNW,300,5.0,9.0,95,0.00,,---,0.01,VWS V14.01,2013-10-21 08:46:00,
2013-10-21 03:51:00,29.0,27.8,27.66,WNW,297,0.0,5.0,95,0.00,,---,0.01,VWS V14.01,2013-10-21 08:51:00,
2013-10-21 03:56:00,28.8,27.5,27.66,West,271,2.0,4.0,95,0.00,,---,0.01,VWS V14.01,2013-10-21 08:56:00,
2013-10-21 04:02:00,28.7,27.5,27.66,WNW,287,4.0,4.0,95,0.00,,---,0.01,VWS V14.01,2013-10-21 09:02:00,
2013-10-21 04:07:00,28.5,27.2,27.67,West,269,5.0,5.0,95,0.00,,---,0.01,VWS V14.01,2013-10-21 09:07:00,
2013-10-21 04:12:00,28.5,27.2,27.67,NW,311,3.0,9.0,95,0.00,,---,0.01,VWS V14.01,2013-10-21 09:12:00,
2013-10-21 04:17:00,28.6,27.4,27.67,WNW,291,4.0,7.0,95,0.00,,---,0.01,VWS V14.01,2013-10-21 09:17:00,
2013-10-21 04:22:00,28.6,27.4,27.66,WNW,289,6.0,7.0,95,0.00,,---,0.01,VWS V14.01,2013-10-21 09:22:00,
2013-10-21 04:27:00,28.6,27.4,27.66,West,275,3.0,8.0,95,0.00,,---,0.01,VWS V14.01,2013-10-21 09:27:00,
2013-10-21 04:32:00,28.7,27.2,27.66,West,275,2.0,6.0,94,0.00,,---,0.01,VWS V14.01,2013-10-21 09:32:00,
2013-10-21 04:37:00,28.7,27.2,27.66,NW,311,2.0,7.0,94,0.00,,---,0.01,VWS V14.01,2013-10-21 09:37:00,
2013-10-21 04:42:00,28.7,27.2,27.66,WNW,286,3.0,3.0,94,0.00,,---,0.01,VWS V14.01,2013-10-21 09:42:00,
2013-10-21 04:47:00,28.7,27.2,27.66,NNW,334,5.0,10.0,94,0.00,,---,0.01,VWS V14.01,2013-10-21 09:47:00,
2013-10-21 04:53:00,28.7,27.2,27.66,WNW,291,3.0,5.0,94,0.00,,---,0.01,VWS V14.01,2013-10-21 09:53:00,
2013-10-21 04:58:00,28.8,27.3,27.66,West,261,3.0,7.0,94,0.00,,---,0.01,VWS V14.01,2013-10-21 09:58:00,
2013-10-21 05:03:00,28.8,27.3,27.66,WSW,257,4.0,5.0,94,0.00,,---,0.01,VWS V14.01,2013-10-21 10:03:00,
2013-10-21 05:08:00,28.8,27.3,27.66,West,276,5.0,10.0,94,0.00,,---,0.01,VWS V14.01,2013-10-21 10:08:00,
2013-10-21 05:13:00,28.8,27.3,27.66,NW,305,2.0,6.0,94,0.00,,---,0.01,VWS V14.01,2013-10-21 10:13:00,
2013-10-21 05:18:00,28.7,26.9,27.66,West,267,5.0,11.0,93,0.00,,---,0.01,VWS V14.01,2013-10-21 10:18:00,
2013-10-21 05:24:00,28.7,26.9,27.66,West,280,3.0,8.0,93,0.00,,---,0.01,VWS V14.01,2013-10-21 10:24:00,
2013-10-21 05:29:00,28.7,27.2,27.66,NW,320,8.0,10.0,94,0.00,,---,0.01,VWS V14.01,2013-10-21 10:29:00,
2013-10-21 05:34:00,28.5,27.0,27.66,WNW,283,5.0,5.0,94,0.00,,---,0.01,VWS V14.01,2013-10-21 10:34:00,
2013-10-21 05:39:00,28.3,26.8,27.66,NNW,328,2.0,5.0,94,0.00,,---,0.01,VWS V14.01,2013-10-21 10:39:00,
2013-10-21 05:44:00,28.4,26.9,27.66,WNW,298,5.0,5.0,94,0.00,,---,0.01,VWS V14.01,2013-10-21 10:44:00,
2013-10-21 05:50:00,27.9,26.1,27.67,NW,324,3.0,8.0,93,0.00,,---,0.01,VWS V14.01,2013-10-21 10:50:00,
2013-10-21 05:55:00,27.9,26.1,27.67,West,278,4.0,4.0,93,0.00,,---,0.01,VWS V14.01,2013-10-21 10:55:00,
2013-10-21 06:00:00,27.9,26.1,27.67,WNW,284,8.0,8.0,93,0.00,,---,0.01,VWS V14.01,2013-10-21 11:00:00,
2013-10-21 06:05:00,27.9,26.1,27.66,WNW,301,0.0,6.0,93,0.00,,---,0.01,VWS V14.01,2013-10-21 11:05:00,
2013-10-21 06:11:00,27.9,26.1,27.66,WNW,300,9.0,9.0,93,0.00,,---,0.01,VWS V14.01,2013-10-21 11:11:00,
2013-10-21 06:16:00,27.7,25.7,27.66,WNW,296,3.0,5.0,92,0.00,,---,0.01,VWS V14.01,2013-10-21 11:16:00,
2013-10-21 06:21:00,27.6,25.6,27.66,West,273,2.0,5.0,92,0.00,,---,0.01,VWS V14.01,2013-10-21 11:21:00,
2013-10-21 06:26:00,27.5,25.2,27.66,WNW,284,0.0,2.0,91,0.00,,---,0.01,VWS V14.01,2013-10-21 11:26:00,
2013-10-21 06:31:00,27.4,25.1,27.66,WNW,292,6.0,7.0,91,0.00,,---,0.01,VWS V14.01,2013-10-21 11:31:00,
2013-10-21 06:37:00,27.4,25.1,27.66,WNW,287,2.0,6.0,91,0.00,,---,0.01,VWS V14.01,2013-10-21 11:37:00,
2013-10-21 06:42:00,27.3,25.0,27.66,West,278,7.0,7.0,91,0.00,,---,0.01,VWS V14.01,2013-10-21 11:42:00,
2013-10-21 06:47:00,27.2,24.9,27.66,WNW,298,7.0,11.0,91,0.00,,---,0.01,VWS V14.01,2013-10-21 11:47:00,
2013-10-21 06:52:00,27.2,24.7,27.66,West,276,4.0,9.0,90,0.00,,---,0.01,VWS V14.01,2013-10-21 11:52:00,
2013-10-21 06:58:00,27.2,24.9,27.66,West,265,5.0,7.0,91,0.00,,---,0.01,VWS V14.01,2013-10-21 11:58:00,
2013-10-21 07:03:00,27.2,24.9,27.66,NNW,338,9.0,10.0,91,0.00,,---,0.01,VWS V14.01,2013-10-21 12:03:00,
2013-10-21 07:08:00,27.2,24.9,27.66,WNW,303,4.0,4.0,91,0.00,,---,0.01,VWS V14.01,2013-10-21 12:08:00,
2013-10-21 07:13:00,27.1,24.8,27.66,North,5,4.0,4.0,91,0.00,,---,0.01,VWS V14.01,2013-10-21 12:13:00,
2013-10-21 07:18:00,27.2,24.9,27.65,WNW,290,8.0,11.0,91,0.00,,---,0.01,VWS V14.01,2013-10-21 12:18:00,
2013-10-21 07:23:00,27.2,24.9,27.65,NNW,329,2.0,5.0,91,0.00,,---,0.01,VWS V14.01,2013-10-21 12:23:00,
2013-10-21 07:29:00,27.2,24.9,27.65,West,272,6.0,7.0,91,0.00,,---,0.01,VWS V14.01,2013-10-21 12:29:00,
2013-10-21 07:34:00,27.3,25.0,27.65,WNW,294,4.0,12.0,91,0.00,,---,0.01,VWS V14.01,2013-10-21 12:34:00,
2013-10-21 07:39:00,27.4,25.4,27.65,West,270,3.0,12.0,92,0.00,,---,0.01,VWS V14.01,2013-10-21 12:39:00,
2013-10-21 07:44:00,27.4,25.1,27.65,WNW,298,3.0,5.0,91,0.00,,---,0.01,VWS V14.01,2013-10-21 12:44:00,
2013-10-21 07:49:00,27.4,25.1,27.65,NNW,335,2.0,2.0,91,0.00,,---,0.01,VWS V14.01,2013-10-21 12:49:00,
2013-10-21 07:54:00,27.4,25.1,27.65,NW,311,6.0,10.0,91,0.00,,---,0.01,VWS V14.01,2013-10-21 12:54:00,
2013-10-21 07:59:00,27.4,25.4,27.65,NW,306,6.0,6.0,92,0.00,,---,0.01,VWS V14.01,2013-10-21 12:59:00,
2013-10-21 08:05:00,27.4,25.4,27.65,West,276,2.0,9.0,92,0.00,,---,0.01,VWS V14.01,2013-10-21 13:05:00,
2013-10-21 08:10:00,27.4,25.4,27.65,NW,311,9.0,9.0,92,0.00,,---,0.01,VWS V14.01,2013-10-21 13:10:00,
2013-10-21 08:15:00,27.4,25.4,27.65,WNW,300,4.0,9.0,92,0.00,,---,0.01,VWS V14.01,2013-10-21 13:15:00,
2013-10-21 08:20:00,27.4,25.4,27.65,NW,311,4.0,9.0,92,0.00,,---,0.01,VWS V14.01,2013-10-21 13:20:00,
2013-10-21 08:25:00,27.6,25.6,27.65,NNW,337,6.0,11.0,92,0.00,,---,0.01,VWS V14.01,2013-10-21 13:25:00,
2013-10-21 08:30:00,27.4,25.4,27.65,WNW,290,4.0,8.0,92,0.00,,---,0.01,VWS V14.01,2013-10-21 13:30:00,
2013-10-21 08:35:00,27.4,25.4,27.65,WNW,293,2.0,4.0,92,0.00,,---,0.01,VWS V14.01,2013-10-21 13:35:00,
2013-10-21 08:40:00,27.5,25.5,27.65,NW,319,5.0,8.0,92,0.00,,---,0.01,VWS V14.01,2013-10-21 13:40:00,
2013-10-21 08:45:00,27.4,25.1,27.65,WNW,303,4.0,6.0,91,0.00,,---,0.01,VWS V14.01,2013-10-21 13:45:00,
2013-10-21 08:50:00,27.5,25.2,27.65,NW,304,2.0,6.0,91,0.00,,---,0.01,VWS V14.01,2013-10-21 13:50:00,
2013-10-21 08:55:00,27.5,25.2,27.65,WNW,283,3.0,3.0,91,0.00,,---,0.01,VWS V14.01,2013-10-21 13:55:00,
2013-10-21 09:00:00,27.7,25.4,27.65,West,270,6.0,12.0,91,0.00,,---,0.01,VWS V14.01,2013-10-21 14:00:00,
2013-10-21 09:06:00,27.7,25.4,27.65,WNW,302,2.0,7.0,91,0.00,,---,0.01,VWS V14.01,2013-10-21 14:06:00,
2013-10-21 09:11:00,27.7,25.2,27.65,WNW,289,8.0,16.0,90,0.00,,---,0.01,VWS V14.01,2013-10-21 14:11:00,
2013-10-21 09:16:00,27.8,25.2,27.65,West,267,2.0,11.0,90,0.00,,---,0.01,VWS V14.01,2013-10-21 14:16:00,
2013-10-21 09:21:00,28.0,25.5,27.65,West,265,8.0,8.0,90,0.00,,---,0.01,VWS V14.01,2013-10-21 14:21:00,
2013-10-21 09:26:00,28.0,25.5,27.65,West,273,6.0,6.0,90,0.00,,---,0.01,VWS V14.01,2013-10-21 14:26:00,
2013-10-21 09:31:00,28.1,25.8,27.65,WSW,249,4.0,4.0,91,0.00,,---,0.01,VWS V14.01,2013-10-21 14:31:00,
2013-10-21 09:37:00,28.0,25.7,27.65,WNW,290,2.0,6.0,91,0.00,,---,0.01,VWS V14.01,2013-10-21 14:37:00,
2013-10-21 09:42:00,27.8,25.8,27.65,WNW,288,5.0,6.0,92,0.00,,---,0.01,VWS V14.01,2013-10-21 14:42:00,
2013-10-21 09:47:00,27.6,25.6,27.65,NW,308,2.0,6.0,92,0.00,,---,0.01,VWS V14.01,2013-10-21 14:47:00,
2013-10-21 09:52:00,27.6,25.6,27.65,WNW,298,3.0,4.0,92,0.00,,---,0.01,VWS V14.01,2013-10-21 14:52:00,
2013-10-21 09:57:00,27.4,25.1,27.65,NW,313,9.0,10.0,91,0.00,,---,0.01,VWS V14.01,2013-10-21 14:57:00,
2013-10-21 10:02:00,27.4,25.4,27.64,SW,233,3.0,7.0,92,0.00,,---,0.01,VWS V14.01,2013-10-21 15:02:00,
2013-10-21 10:08:00,27.4,25.4,27.64,WSW,252,5.0,8.0,92,0.00,,---,0.01,VWS V14.01,2013-10-21 15:08:00,
2013-10-21 10:13:00,27.4,25.4,27.64,WSW,254,3.0,9.0,92,0.00,,---,0.01,VWS V14.01,2013-10-21 15:13:00,
2013-10-21 10:18:00,27.5,25.5,27.65,West,267,9.0,9.0,92,0.00,,---,0.01,VWS V14.01,2013-10-21 15:18:00,
2013-10-21 10:23:00,27.8,25.8,27.65,West,273,5.0,9.0,92,0.00,,---,0.01,VWS V14.01,2013-10-21 15:23:00,
2013-10-21 10:28:00,28.0,25.7,27.65,WSW,252,6.0,10.0,91,0.00,,---,0.01,VWS V14.01,2013-10-21 15:28:00,
2013-10-21 10:33:00,28.0,25.7,27.64,NW,310,2.0,2.0,91,0.00,,---,0.01,VWS V14.01,2013-10-21 15:33:00,
2013-10-21 10:38:00,27.9,25.4,27.64,West,267,8.0,8.0,90,0.00,,---,0.01,VWS V14.01,2013-10-21 15:38:00,
2013-10-21 10:43:00,27.7,25.2,27.64,WNW,286,10.0,10.0,90,0.00,,---,0.01,VWS V14.01,2013-10-21 15:43:00,
2013-10-21 10:49:00,27.8,25.2,27.64,West,268,2.0,4.0,90,0.00,,---,0.01,VWS V14.01,2013-10-21 15:49:00,
2013-10-21 10:54:00,27.9,25.4,27.64,West,266,3.0,10.0,90,0.00,,---,0.01,VWS V14.01,2013-10-21 15:54:00,
2013-10-21 10:59:00,27.8,25.0,27.64,West,261,3.0,14.0,89,0.00,,---,0.01,VWS V14.01,2013-10-21 15:59:00,
2013-10-21 11:04:00,27.7,25.2,27.64,WSW,244,3.0,11.0,90,0.00,,---,0.01,VWS V14.01,2013-10-21 16:04:00,
2013-10-21 11:09:00,27.7,25.2,27.64,West,273,5.0,10.0,90,0.00,,---,0.01,VWS V14.01,2013-10-21 16:09:00,
2013-10-21 11:14:00,27.5,25.0,27.64,West,276,13.0,13.0,90,0.00,,---,0.01,VWS V14.01,2013-10-21 16:14:00,
2013-10-21 11:19:00,27.5,25.2,27.64,West,265,4.0,8.0,91,0.00,,---,0.01,VWS V14.01,2013-10-21 16:19:00,
2013-10-21 11:25:00,27.5,25.2,27.64,SW,217,2.0,6.0,91,0.00,,---,0.01,VWS V14.01,2013-10-21 16:25:00,
2013-10-21 11:30:00,27.6,25.3,27.64,West,265,4.0,4.0,91,0.00,,---,0.01,VWS V14.01,2013-10-21 16:30:00,
2013-10-21 11:35:00,27.7,25.7,27.64,WSW,253,3.0,12.0,92,0.00,,---,0.01,VWS V14.01,2013-10-21 16:35:00,
2013-10-21 11:40:00,27.7,25.4,27.64,West,279,7.0,10.0,91,0.00,,---,0.01,VWS V14.01,2013-10-21 16:40:00,
2013-10-21 11:45:00,27.7,25.2,27.64,West,278,3.0,4.0,90,0.00,,---,0.01,VWS V14.01,2013-10-21 16:45:00,
2013-10-21 11:50:00,27.9,25.6,27.64,West,265,1.0,3.0,91,0.00,,---,0.01,VWS V14.01,2013-10-21 16:50:00,
2013-10-21 11:55:00,28.0,25.5,27.64,WSW,244,5.0,13.0,90,0.00,,---,0.01,VWS V14.01,2013-10-21 16:55:00,
2013-10-21 12:00:00,28.1,25.5,27.64,WSW,237,5.0,7.0,90,0.00,,---,0.01,VWS V14.01,2013-10-21 17:00:00,
2013-10-21 12:06:00,28.2,25.9,27.63,West,269,2.0,6.0,91,0.00,,---,0.01,VWS V14.01,2013-10-21 17:06:00,
2013-10-21 12:11:00,28.2,25.9,27.63,WNW,300,11.0,11.0,91,0.00,,---,0.01,VWS V14.01,2013-10-21 17:11:00,
2013-10-21 12:16:00,28.0,25.5,27.63,West,267,5.0,8.0,90,0.00,,---,0.01,VWS V14.01,2013-10-21 17:16:00,
2013-10-21 12:21:00,28.1,25.8,27.63,WSW,240,5.0,6.0,91,0.00,,---,0.01,VWS V14.01,2013-10-21 17:21:00,
2013-10-21 12:26:00,28.2,25.6,27.63,WNW,286,4.0,12.0,90,0.00,,---,0.01,VWS V14.01,2013-10-21 17:26:00,
2013-10-21 12:31:00,28.2,25.6,27.63,West,275,9.0,9.0,90,0.00,,---,0.01,VWS V14.01,2013-10-21 17:31:00,
2013-10-21 12:36:00,28.3,26.0,27.63,West,269,7.0,11.0,91,0.00,,---,0.01,VWS V14.01,2013-10-21 17:36:00,
2013-10-21 12:41:00,28.3,26.0,27.63,WNW,286,4.0,4.0,91,0.00,,---,0.01,VWS V14.01,2013-10-21 17:41:00,
2013-10-21 12:47:00,28.3,26.0,27.63,WNW,284,6.0,13.0,91,0.00,,---,0.01,VWS V14.01,2013-10-21 17:47:00,
2013-10-21 12:52:00,28.2,25.9,27.63,West,271,3.0,4.0,91,0.00,,---,0.01,VWS V14.01,2013-10-21 17:52:00,
2013-10-21 12:57:00,28.0,25.7,27.63,WNW,286,4.0,7.0,91,0.00,,---,0.01,VWS V14.01,2013-10-21 17:57:00,
2013-10-21 13:02:00,27.9,25.9,27.63,WNW,288,3.0,7.0,92,0.00,,---,0.01,VWS V14.01,2013-10-21 18:02:00,
2013-10-21 13:07:00,27.8,25.8,27.62,WNW,293,6.0,7.0,92,0.00,,---,0.01,VWS V14.01,2013-10-21 18:07:00,
2013-10-21 13:12:00,27.8,26.0,27.62,West,281,4.0,4.0,93,0.00,,---,0.01,VWS V14.01,2013-10-21 18:12:00,
2013-10-21 13:17:00,28.0,26.2,27.62,WNW,292,1.0,4.0,93,0.00,,---,0.01,VWS V14.01,2013-10-21 18:17:00,
2013-10-21 13:22:00,27.9,26.1,27.62,West,266,3.0,4.0,93,0.00,,---,0.01,VWS V14.01,2013-10-21 18:22:00,
2013-10-21 13:28:00,27.9,26.1,27.62,SW,222,6.0,6.0,93,0.00,,---,0.01,VWS V14.01,2013-10-21 18:28:00,
2013-10-21 13:33:00,27.9,26.1,27.62,WNW,287,5.0,5.0,93,0.00,,---,0.01,VWS V14.01,2013-10-21 18:33:00,
2013-10-21 13:38:00,27.8,26.0,27.62,West,281,3.0,7.0,93,0.00,,---,0.01,VWS V14.01,2013-10-21 18:38:00,
2013-10-21 13:43:00,27.7,25.9,27.62,West,269,5.0,5.0,93,0.00,,---,0.01,VWS V14.01,2013-10-21 18:43:00,
2013-10-21 13:48:00,27.9,26.4,27.61,West,266,4.0,7.0,94,0.00,,---,0.01,VWS V14.01,2013-10-21 18:48:00,
2013-10-21 13:53:00,28.0,26.5,27.61,West,272,6.0,9.0,94,0.00,,---,0.01,VWS V14.01,2013-10-21 18:53:00,
2013-10-21 13:59:00,28.0,26.5,27.61,WSW,257,1.0,5.0,94,0.00,,---,0.01,VWS V14.01,2013-10-21 18:59:00,
2013-10-21 14:04:00,28.0,26.5,27.61,West,277,4.0,5.0,94,0.00,,---,0.01,VWS V14.01,2013-10-21 19:04:00,
2013-10-21 14:09:00,28.0,26.5,27.61,West,273,4.0,4.0,94,0.00,,---,0.01,VWS V14.01,2013-10-21 19:09:00,
2013-10-21 14:14:00,28.0,26.5,27.61,West,274,8.0,8.0,94,0.00,,---,0.01,VWS V14.01,2013-10-21 19:14:00,
2013-10-21 14:19:00,28.1,26.6,27.61,WSW,248,4.0,9.0,94,0.00,,---,0.01,VWS V14.01,2013-10-21 19:19:00,
2013-10-21 14:25:00,28.2,26.7,27.61,WNW,282,3.0,6.0,94,0.00,,---,0.01,VWS V14.01,2013-10-21 19:25:00,
2013-10-21 14:30:00,28.3,26.8,27.61,SW,226,4.0,7.0,94,0.00,,---,0.01,VWS V14.01,2013-10-21 19:30:00,
2013-10-21 14:35:00,28.3,26.8,27.60,West,277,4.0,4.0,94,0.00,,---,0.01,VWS V14.01,2013-10-21 19:35:00,
2013-10-21 14:40:00,28.5,27.0,27.60,West,261,1.0,3.0,94,0.00,,---,0.01,VWS V14.01,2013-10-21 19:40:00,
2013-10-21 14:45:00,28.7,27.2,27.60,WNW,296,11.0,13.0,94,0.00,,---,0.01,VWS V14.01,2013-10-21 19:45:00,
2013-10-21 14:50:00,28.6,27.1,27.60,West,278,4.0,8.0,94,0.00,,---,0.01,VWS V14.01,2013-10-21 19:50:00,
2013-10-21 14:56:00,28.5,27.0,27.60,West,265,7.0,12.0,94,0.00,,---,0.01,VWS V14.01,2013-10-21 19:56:00,
2013-10-21 15:01:00,28.4,26.9,27.60,West,281,4.0,10.0,94,0.00,,---,0.01,VWS V14.01,2013-10-21 20:01:00,
2013-10-21 15:06:00,28.3,26.8,27.60,WNW,296,4.0,10.0,94,0.00,,---,0.01,VWS V14.01,2013-10-21 20:06:00,
2013-10-21 15:11:00,28.4,26.9,27.60,West,271,2.0,4.0,94,0.00,,---,0.01,VWS V14.01,2013-10-21 20:11:00,
2013-10-21 15:16:00,28.5,27.0,27.60,WNW,284,11.0,11.0,94,0.00,,---,0.01,VWS V14.01,2013-10-21 20:16:00,
2013-10-21 15:21:00,28.6,27.1,27.60,WNW,297,2.0,4.0,94,0.00,,---,0.01,VWS V14.01,2013-10-21 20:21:00,
2013-10-21 15:26:00,28.6,27.1,27.60,West,278,1.0,5.0,94,0.00,,---,0.01,VWS V14.01,2013-10-21 20:26:00,
2013-10-21 15:32:00,28.6,27.1,27.60,WNW,282,10.0,10.0,94,0.00,,---,0.01,VWS V14.01,2013-10-21 20:32:00,
2013-10-21 15:37:00,28.5,27.0,27.60,West,263,4.0,8.0,94,0.00,,---,0.01,VWS V14.01,2013-10-21 20:37:00,
2013-10-21 15:42:00,28.5,27.0,27.60,WNW,296,7.0,12.0,94,0.00,,---,0.01,VWS V14.01,2013-10-21 20:42:00,
2013-10-21 15:47:00,28.5,27.0,27.60,West,260,3.0,4.0,94,0.00,,---,0.01,VWS V14.01,2013-10-21 20:47:00,
2013-10-21 15:52:00,28.6,27.1,27.60,WNW,292,5.0,5.0,94,0.00,,---,0.01,VWS V14.01,2013-10-21 20:52:00,
2013-10-21 15:58:00,28.6,27.4,27.60,West,279,8.0,9.0,95,0.00,,---,0.01,VWS V14.01,2013-10-21 20:58:00,
2013-10-21 16:03:00,28.6,27.4,27.60,WSW,250,8.0,11.0,95,0.00,,---,0.01,VWS V14.01,2013-10-21 21:03:00,
2013-10-21 16:08:00,28.6,27.4,27.60,WNW,298,6.0,9.0,95,0.00,,---,0.01,VWS V14.01,2013-10-21 21:08:00,
2013-10-21 16:13:00,28.6,27.4,27.60,West,280,7.0,10.0,95,0.00,,---,0.01,VWS V14.01,2013-10-21 21:13:00,
2013-10-21 16:18:00,28.8,27.5,27.59,SW,232,5.0,7.0,95,0.00,,---,0.01,VWS V14.01,2013-10-21 21:18:00,
2013-10-21 16:23:00,28.9,27.6,27.59,West,275,4.0,4.0,95,0.00,,---,0.01,VWS V14.01,2013-10-21 21:23:00,
2013-10-21 16:29:00,29.0,27.8,27.59,West,262,2.0,8.0,95,0.00,,---,0.01,VWS V14.01,2013-10-21 21:29:00,
2013-10-21 16:34:00,29.2,28.0,27.59,West,271,4.0,8.0,95,0.00,,---,0.01,VWS V14.01,2013-10-21 21:34:00,
2013-10-21 16:39:00,29.3,28.0,27.59,West,274,5.0,5.0,95,0.00,,---,0.01,VWS V14.01,2013-10-21 21:39:00,
2013-10-21 16:44:00,29.3,28.0,27.59,West,278,2.0,4.0,95,0.00,,---,0.01,VWS V14.01,2013-10-21 21:44:00,
2013-10-21 16:49:00,29.4,28.1,27.59,West,267,3.0,5.0,95,0.00,,---,0.01,VWS V14.01,2013-10-21 21:49:00,
2013-10-21 16:55:00,29.5,28.2,27.59,West,272,2.0,11.0,95,0.00,,---,0.01,VWS V14.01,2013-10-21 21:55:00,
2013-10-21 17:00:00,29.6,28.4,27.59,West,281,5.0,8.0,95,0.00,,---,0.01,VWS V14.01,2013-10-21 22:00:00,
2013-10-21 17:05:00,29.6,28.4,27.60,West,265,8.0,8.0,95,0.00,,---,0.01,VWS V14.01,2013-10-21 22:05:00,
2013-10-21 17:10:00,29.7,28.5,27.60,West,273,1.0,7.0,95,0.00,,---,0.01,VWS V14.01,2013-10-21 22:10:00,
2013-10-21 17:15:00,29.8,28.5,27.60,West,281,4.0,6.0,95,0.00,,---,0.01,VWS V14.01,2013-10-21 22:15:00,
2013-10-21 17:20:00,29.9,28.9,27.60,NNW,329,3.0,7.0,96,0.00,,---,0.01,VWS V14.01,2013-10-21 22:20:00,
2013-10-21 17:25:00,30.0,29.0,27.60,WNW,303,1.0,2.0,96,0.00,,---,0.01,VWS V14.01,2013-10-21 22:25:00,
2013-10-21 17:30:00,30.1,29.1,27.60,WNW,285,3.0,7.0,96,0.00,,---,0.01,VWS V14.01,2013-10-21 22:30:00,
2013-10-21 17:35:00,30.1,29.1,27.60,NW,316,3.0,11.0,96,0.00,,---,0.01,VWS V14.01,2013-10-21 22:35:00,
2013-10-21 17:41:00,30.3,29.3,27.60,West,278,3.0,10.0,96,0.00,,---,0.01,VWS V14.01,2013-10-21 22:41:00,
2013-10-21 17:46:00,30.3,29.3,27.60,WNW,292,5.0,13.0,96,0.00,,---,0.01,VWS V14.01,2013-10-21 22:46:00,
2013-10-21 17:51:00,30.5,29.5,27.60,NNW,335,0.0,1.0,96,0.00,,---,0.01,VWS V14.01,2013-10-21 22:51:00,
2013-10-21 17:56:00,30.6,29.6,27.60,NW,311,5.0,8.0,96,0.00,,---,0.01,VWS V14.01,2013-10-21 22:56:00,
2013-10-21 18:01:00,30.8,29.8,27.60,WNW,285,9.0,9.0,96,0.00,,---,0.01,VWS V14.01,2013-10-21 23:01:00,
2013-10-21 18:07:00,30.9,29.9,27.61,NNE,13,11.0,18.0,96,0.00,,---,0.01,VWS V14.01,2013-10-21 23:07:00,
2013-10-21 18:12:00,31.0,30.0,27.61,NW,321,8.0,8.0,96,0.00,,---,0.01,VWS V14.01,2013-10-21 23:12:00,
2013-10-21 18:17:00,31.1,30.1,27.61,WNW,303,6.0,7.0,96,0.00,,---,0.01,VWS V14.01,2013-10-21 23:17:00,
2013-10-21 18:22:00,31.1,30.1,27.61,NW,323,6.0,7.0,96,0.00,,---,0.01,VWS V14.01,2013-10-21 23:22:00,
2013-10-21 18:27:00,31.0,30.0,27.61,North,11,0.0,3.0,96,0.00,,---,0.01,VWS V14.01,2013-10-21 23:27:00,
2013-10-21 18:32:00,31.0,30.0,27.62,NNW,337,10.0,10.0,96,0.00,,---,0.01,VWS V14.01,2013-10-21 23:32:00,
2013-10-21 18:38:00,31.0,30.0,27.62,North,360,5.0,10.0,96,0.00,,---,0.01,VWS V14.01,2013-10-21 23:38:00,
2013-10-21 18:43:00,31.0,30.0,27.62,NNW,340,5.0,5.0,96,0.00,,---,0.01,VWS V14.01,2013-10-21 23:43:00,
2013-10-21 18:48:00,31.0,30.0,27.63,NNW,335,4.0,8.0,96,0.00,,---,0.01,VWS V14.01,2013-10-21 23:48:00,
2013-10-21 18:53:00,30.9,29.9,27.63,WNW,298,6.0,6.0,96,0.00,,---,0.01,VWS V14.01,2013-10-21 23:53:00,
2013-10-21 18:58:00,30.9,29.9,27.63,NNW,342,11.0,14.0,96,0.00,,---,0.01,VWS V14.01,2013-10-21 23:58:00,
2013-10-21 19:03:00,30.8,29.8,27.63,NNW,328,5.0,11.0,96,0.00,,---,0.01,VWS V14.01,2013-10-22 00:03:00,
2013-10-21 19:08:00,30.8,29.8,27.63,NNW,344,9.0,10.0,96,0.00,,---,0.01,VWS V14.01,2013-10-22 00:08:00,
2013-10-21 19:13:00,30.8,29.8,27.63,NNW,337,12.0,16.0,96,0.00,,---,0.01,VWS V14.01,2013-10-22 00:13:00,
2013-10-21 19:19:00,30.8,29.8,27.63,NNW,336,6.0,12.0,96,0.00,,---,0.01,VWS V14.01,2013-10-22 00:19:00,
2013-10-21 19:24:00,30.8,29.8,27.63,NW,326,10.0,14.0,96,0.01,,---,0.02,VWS V14.01,2013-10-22 00:24:00,
2013-10-21 19:29:00,30.8,29.8,27.63,North,5,10.0,10.0,96,0.03,,---,0.04,VWS V14.01,2013-10-22 00:29:00,
2013-10-21 19:34:00,30.8,29.8,27.64,North,349,1.0,3.0,96,0.04,,---,0.05,VWS V14.01,2013-10-22 00:34:00,
2013-10-21 19:39:00,30.8,29.8,27.64,NNW,329,5.0,16.0,96,0.05,,---,0.06,VWS V14.01,2013-10-22 00:39:00,
2013-10-21 19:45:00,30.8,29.8,27.64,NNW,336,12.0,14.0,96,0.06,,---,0.07,VWS V14.01,2013-10-22 00:45:00,
2013-10-21 19:50:00,30.8,29.8,27.64,NW,304,6.0,13.0,96,0.07,,---,0.08,VWS V14.01,2013-10-22 00:50:00,
2013-10-21 19:55:00,30.8,29.8,27.64,NNW,334,4.0,9.0,96,0.08,,---,0.09,VWS V14.01,2013-10-22 00:55:00,
2013-10-21 20:00:00,30.8,29.8,27.64,NNW,331,5.0,8.0,96,0.08,,---,0.09,VWS V14.01,2013-10-22 01:00:00,
2013-10-21 20:05:00,30.8,29.8,27.65,North,351,9.0,13.0,96,0.09,,---,0.10,VWS V14.01,2013-10-22 01:05:00,
2013-10-21 20:10:00,30.7,29.7,27.65,WNW,300,7.0,7.0,96,0.09,,---,0.10,VWS V14.01,2013-10-22 01:10:00,
2013-10-21 20:15:00,30.7,29.7,27.65,NW,309,4.0,9.0,96,0.09,,---,0.10,VWS V14.01,2013-10-22 01:15:00,
2013-10-21 20:20:00,30.7,29.7,27.65,NNE,32,8.0,15.0,96,0.10,,---,0.11,VWS V14.01,2013-10-22 01:20:00,
2013-10-21 20:26:00,30.7,29.7,27.65,North,360,8.0,8.0,96,0.08,,---,0.11,VWS V14.01,2013-10-22 01:26:00,
2013-10-21 20:31:00,30.7,29.7,27.65,NNW,330,8.0,11.0,96,0.07,,---,0.11,VWS V14.01,2013-10-22 01:31:00,
2013-10-21 20:36:00,30.7,29.7,27.66,NW,321,8.0,8.0,96,0.05,,---,0.11,VWS V14.01,2013-10-22 01:36:00,
2013-10-21 20:41:00,30.7,29.7,27.66,NNW,327,11.0,11.0,96,0.04,,---,0.11,VWS V14.01,2013-10-22 01:41:00,
2013-10-21 20:46:00,30.7,29.7,27.66,NNW,327,4.0,8.0,96,0.03,,---,0.11,VWS V14.01,2013-10-22 01:46:00,
2013-10-21 20:52:00,30.7,29.7,27.67,North,5,4.0,17.0,96,0.03,,---,0.11,VWS V14.01,2013-10-22 01:52:00,
2013-10-21 20:56:00,30.7,29.7,27.67,NNW,329,4.0,14.0,96,0.02,,---,0.11,VWS V14.01,2013-10-22 01:56:00,
2013-10-21 21:02:00,30.6,29.6,27.67,NW,311,6.0,10.0,96,0.02,,---,0.11,VWS V14.01,2013-10-22 02:02:00,
2013-10-21 21:07:00,30.6,29.6,27.67,North,355,11.0,13.0,96,0.01,,---,0.11,VWS V14.01,2013-10-22 02:07:00,
2013-10-21 21:12:00,30.5,29.5,27.67,NNE,13,5.0,9.0,96,0.01,,---,0.11,VWS V14.01,2013-10-22 02:12:00,
2013-10-21 21:17:00,30.6,29.6,27.67,North,355,9.0,9.0,96,0.01,,---,0.11,VWS V14.01,2013-10-22 02:17:00,
2013-10-21 21:22:00,30.6,29.6,27.68,North,355,5.0,10.0,96,0.00,,---,0.11,VWS V14.01,2013-10-22 02:22:00,
2013-10-21 21:27:00,30.6,29.6,27.68,NNW,328,3.0,4.0,96,0.00,,---,0.11,VWS V14.01,2013-10-22 02:27:00,
2013-10-21 21:32:00,30.6,29.6,27.68,North,350,6.0,12.0,96,0.00,,---,0.11,VWS V14.01,2013-10-22 02:32:00,
2013-10-21 21:37:00,30.5,29.5,27.68,NNE,19,8.0,8.0,96,0.00,,---,0.11,VWS V14.01,2013-10-22 02:37:00,
2013-10-21 21:43:00,30.5,29.5,27.68,NE,38,4.0,8.0,96,0.01,,---,0.12,VWS V14.01,2013-10-22 02:43:00,
2013-10-21 21:48:00,30.5,29.5,27.69,North,350,3.0,4.0,96,0.01,,---,0.12,VWS V14.01,2013-10-22 02:48:00,
2013-10-21 21:53:00,30.5,29.5,27.69,NNW,342,4.0,7.0,96,0.01,,---,0.12,VWS V14.01,2013-10-22 02:53:00,
2013-10-21 21:58:00,30.5,29.5,27.69,NNW,347,5.0,11.0,96,0.01,,---,0.12,VWS V14.01,2013-10-22 02:58:00,
2013-10-21 22:03:00,30.5,29.5,27.69,North,355,5.0,8.0,96,0.01,,---,0.12,VWS V14.01,2013-10-22 03:03:00,
2013-10-21 22:08:00,30.5,29.5,27.69,North,5,6.0,11.0,96,0.01,,---,0.12,VWS V14.01,2013-10-22 03:08:00,
2013-10-21 22:13:00,30.5,29.5,27.69,WNW,300,6.0,6.0,96,0.01,,---,0.12,VWS V14.01,2013-10-22 03:13:00,
2013-10-21 22:18:00,30.3,29.3,27.70,West,279,4.0,10.0,96,0.01,,---,0.12,VWS V14.01,2013-10-22 03:18:00,
2013-10-21 22:23:00,30.2,29.2,27.70,North,5,11.0,14.0,96,0.01,,---,0.12,VWS V14.01,2013-10-22 03:23:00,
2013-10-21 22:29:00,30.3,29.3,27.70,WNW,297,6.0,10.0,96,0.01,,---,0.12,VWS V14.01,2013-10-22 03:29:00,
2013-10-21 22:34:00,30.2,29.2,27.71,NNW,342,4.0,8.0,96,0.01,,---,0.12,VWS V14.01,2013-10-22 03:34:00,
2013-10-21 22:39:00,30.3,29.3,27.71,North,10,7.0,8.0,96,0.01,,---,0.12,VWS V14.01,2013-10-22 03:39:00,
2013-10-21 22:44:00,30.3,29.3,27.71,NNW,332,4.0,6.0,96,0.00,,---,0.12,VWS V14.01,2013-10-22 03:44:00,
2013-10-21 22:49:00,30.2,29.2,27.71,North,5,4.0,8.0,96,0.00,,---,0.12,VWS V14.01,2013-10-22 03:49:00,
2013-10-21 22:54:00,30.2,29.2,27.71,NNE,13,3.0,8.0,96,0.00,,---,0.12,VWS V14.01,2013-10-22 03:54:00,
2013-10-21 22:59:00,30.1,29.1,27.71,North,11,13.0,13.0,96,0.00,,---,0.12,VWS V14.01,2013-10-22 03:59:00,
2013-10-21 23:01:00,30.1,29.1,27.71,WNW,303,4.0,7.0,96,0.00,,---,0.12,VWS V14.01,2013-10-22 04:01:00,
2013-10-21 23:03:00,30.0,29.0,27.72,NW,304,4.0,13.0,96,0.00,,---,0.12,VWS V14.01,2013-10-22 04:03:00,
2013-10-21 23:04:00,30.0,29.0,27.72,NW,305,3.0,13.0,96,0.00,,---,0.12,VWS V14.01,2013-10-22 04:04:00,
2013-10-21 23:09:00,30.0,29.0,27.72,NW,323,5.0,17.0,96,0.00,,---,0.12,VWS V14.01,2013-10-22 04:09:00,
2013-10-21 23:14:00,30.0,29.0,27.72,WNW,300,7.0,7.0,96,0.00,,---,0.12,VWS V14.01,2013-10-22 04:14:00,
2013-10-21 23:19:00,30.1,29.1,27.72,NNW,335,6.0,6.0,96,0.00,,---,0.12,VWS V14.01,2013-10-22 04:19:00,
2013-10-21 23:24:00,30.0,29.0,27.72,NNE,15,3.0,6.0,96,0.00,,---,0.12,VWS V14.01,2013-10-22 04:24:00,
2013-10-21 23:30:00,29.9,28.9,27.72,NNW,333,4.0,8.0,96,0.00,,---,0.12,VWS V14.01,2013-10-22 04:30:00,
2013-10-21 23:35:00,29.8,28.8,27.73,North,360,9.0,9.0,96,0.00,,---,0.12,VWS V14.01,2013-10-22 04:35:00,
2013-10-21 23:40:00,29.7,28.7,27.73,NNW,331,6.0,10.0,96,0.00,,---,0.12,VWS V14.01,2013-10-22 04:40:00,
2013-10-21 23:46:00,29.6,28.6,27.73,NNE,15,5.0,11.0,96,0.00,,---,0.12,VWS V14.01,2013-10-22 04:46:00,
2013-10-21 23:51:00,29.4,28.4,27.74,NNW,333,7.0,9.0,96,0.00,,---,0.12,VWS V14.01,2013-10-22 04:51:00,
2013-10-21 23:56:00,29.4,28.4,27.74,NNW,335,9.0,9.0,96,0.00,,---,0.12,VWS V14.01,2013-10-22 04:56:00,